Time,TemperatureF,DewpointF,PressureIn,WindDirection,WindDirectionDegrees,WindSpeedMPH,WindSpeedGustMPH,Humidity,HourlyPrecipIn,Conditions,Clouds,dailyrainin,SolarRadiationWatts/m^2,SoftwareType,DateUTC
2013-05-30 00:01:00,46.0,45.0,-100.00,ESE,106,10.0,16.0,93,-99.99,,,0.00,0.120000,,2013-05-30 06:01:00,
2013-05-30 00:12:00,46.0,45.0,-100.00,ESE,106,10.0,16.0,93,-99.99,,,0.00,0.120000,,2013-05-30 06:12:00,
2013-05-30 00:32:00,45.0,44.0,-100.00,ESE,123,7.0,10.0,94,-99.99,,,0.00,0.120000,,2013-05-30 06:32:00,
2013-05-30 00:42:00,45.0,44.0,-100.00,ESE,123,7.0,10.0,94,-99.99,,,0.00,0.120000,,2013-05-30 06:42:00,
2013-05-30 00:52:00,45.0,44.0,-100.00,ESE,123,7.0,10.0,94,-99.99,,,0.00,0.120000,,2013-05-30 06:52:00,
2013-05-30 01:01:00,45.0,44.0,-100.00,ESE,123,7.0,10.0,94,-99.99,,,0.00,0.120000,,2013-05-30 07:01:00,
2013-05-30 01:11:00,45.0,44.0,-100.00,ESE,123,7.0,10.0,94,-99.99,,,0.00,0.120000,,2013-05-30 07:11:00,
2013-05-30 01:42:00,45.0,45.0,-100.00,North,7,4.0,8.0,98,-99.99,,,0.01,0.120000,,2013-05-30 07:42:00,
2013-05-30 01:52:00,45.0,45.0,-100.00,North,7,4.0,8.0,98,-99.99,,,0.01,0.120000,,2013-05-30 07:52:00,
2013-05-30 02:02:00,45.0,45.0,-100.00,North,7,4.0,8.0,98,-99.99,,,0.01,0.120000,,2013-05-30 08:02:00,
2013-05-30 02:11:00,45.0,45.0,-100.00,North,7,4.0,8.0,98,-99.99,,,0.01,0.120000,,2013-05-30 08:11:00,
2013-05-30 02:32:00,44.0,43.0,-100.00,NE,44,8.0,11.0,96,-99.99,,,0.01,0.120000,,2013-05-30 08:32:00,
2013-05-30 02:42:00,44.0,43.0,-100.00,NE,44,8.0,11.0,96,-99.99,,,0.01,0.120000,,2013-05-30 08:42:00,
2013-05-30 02:53:00,44.0,43.0,-100.00,NE,44,8.0,11.0,96,-99.99,,,0.01,0.120000,,2013-05-30 08:53:00,
2013-05-30 03:01:00,44.0,43.0,-100.00,NE,44,8.0,11.0,96,-99.99,,,0.01,0.120000,,2013-05-30 09:01:00,
2013-05-30 03:11:00,44.0,43.0,-100.00,NE,44,8.0,11.0,96,-99.99,,,0.01,0.120000,,2013-05-30 09:11:00,
2013-05-30 03:42:00,44.0,42.0,-100.00,NE,46,7.0,10.0,94,-99.99,,,0.01,0.120000,,2013-05-30 09:42:00,
2013-05-30 03:53:00,44.0,42.0,-100.00,NE,46,7.0,10.0,94,-99.99,,,0.01,0.120000,,2013-05-30 09:53:00,
2013-05-30 04:02:00,44.0,42.0,-100.00,NE,46,7.0,10.0,94,-99.99,,,0.01,0.120000,,2013-05-30 10:02:00,
2013-05-30 04:12:00,44.0,42.0,-100.00,NE,46,7.0,10.0,94,-99.99,,,0.01,0.120000,,2013-05-30 10:12:00,
2013-05-30 04:32:00,43.0,41.0,-100.00,NE,48,8.0,12.0,92,-99.99,,,0.01,0.120000,,2013-05-30 10:32:00,
2013-05-30 04:42:00,43.0,41.0,-100.00,NE,48,8.0,12.0,92,-99.99,,,0.01,0.120000,,2013-05-30 10:42:00,
2013-05-30 04:52:00,43.0,41.0,-100.00,NE,48,8.0,12.0,92,-99.99,,,0.01,0.120000,,2013-05-30 10:52:00,
2013-05-30 05:03:00,43.0,41.0,-100.00,NE,48,8.0,12.0,92,-99.99,,,0.01,0.120000,,2013-05-30 11:03:00,
2013-05-30 05:12:00,43.0,41.0,-100.00,NE,48,8.0,12.0,92,-99.99,,,0.01,0.120000,,2013-05-30 11:12:00,
2013-05-30 05:32:00,43.0,40.0,-100.00,ENE,71,7.0,12.0,89,-99.99,,,0.01,0.120000,,2013-05-30 11:32:00,
2013-05-30 05:42:00,43.0,40.0,-100.00,ENE,71,7.0,12.0,89,-99.99,,,0.01,0.120000,,2013-05-30 11:42:00,
2013-05-30 05:52:00,43.0,40.0,-100.00,ENE,71,7.0,12.0,89,-99.99,,,0.01,0.120000,,2013-05-30 11:52:00,
2013-05-30 06:01:00,43.0,40.0,-100.00,ENE,71,7.0,12.0,89,-99.99,,,0.01,0.120000,,2013-05-30 12:01:00,
2013-05-30 06:11:00,43.0,40.0,-100.00,ENE,71,7.0,12.0,89,-99.99,,,0.01,0.120000,,2013-05-30 12:11:00,
2013-05-30 06:42:00,43.0,41.0,-100.00,NE,44,6.0,9.0,93,-99.99,,,0.01,8.370000,,2013-05-30 12:42:00,
2013-05-30 06:52:00,43.0,41.0,-100.00,NE,44,6.0,9.0,93,-99.99,,,0.01,8.370000,,2013-05-30 12:52:00,
2013-05-30 07:01:00,43.0,41.0,-100.00,NE,44,6.0,9.0,93,-99.99,,,0.01,8.370000,,2013-05-30 13:01:00,
2013-05-30 07:11:00,43.0,41.0,-100.00,NE,44,6.0,9.0,93,-99.99,,,0.01,8.370000,,2013-05-30 13:11:00,
2013-05-30 07:42:00,44.0,40.0,-100.00,NNE,33,4.0,8.0,88,-99.99,,,0.01,67.989998,,2013-05-30 13:42:00,
2013-05-30 07:52:00,44.0,40.0,-100.00,NNE,33,4.0,8.0,88,-99.99,,,0.01,67.989998,,2013-05-30 13:52:00,
2013-05-30 08:01:00,44.0,40.0,-100.00,NNE,33,4.0,8.0,88,-99.99,,,0.01,67.989998,,2013-05-30 14:01:00,
2013-05-30 08:11:00,44.0,40.0,-100.00,NNE,33,4.0,8.0,88,-99.99,,,0.01,67.989998,,2013-05-30 14:11:00,
2013-05-30 08:32:00,45.0,40.0,-100.00,NNE,18,6.0,9.0,82,-99.99,,,0.01,137.949997,,2013-05-30 14:32:00,
2013-05-30 08:42:00,45.0,40.0,-100.00,NNE,18,6.0,9.0,82,-99.99,,,0.01,137.949997,,2013-05-30 14:42:00,
2013-05-30 08:52:00,45.0,40.0,-100.00,NNE,18,6.0,9.0,82,-99.99,,,0.01,137.949997,,2013-05-30 14:52:00,
2013-05-30 09:01:00,45.0,40.0,-100.00,NNE,18,6.0,9.0,82,-99.99,,,0.01,137.949997,,2013-05-30 15:01:00,
2013-05-30 09:11:00,45.0,40.0,-100.00,NNE,18,6.0,9.0,82,-99.99,,,0.01,137.949997,,2013-05-30 15:11:00,
2013-05-30 09:33:00,47.0,39.0,-100.00,North,3,8.0,12.0,73,-99.99,,,0.01,187.929993,,2013-05-30 15:33:00,
2013-05-30 09:42:00,47.0,39.0,-100.00,North,3,8.0,12.0,73,-99.99,,,0.01,187.929993,,2013-05-30 15:42:00,
2013-05-30 09:52:00,47.0,39.0,-100.00,North,3,8.0,12.0,73,-99.99,,,0.01,187.929993,,2013-05-30 15:52:00,
2013-05-30 10:03:00,47.0,39.0,-100.00,North,3,8.0,12.0,73,-99.99,,,0.01,187.929993,,2013-05-30 16:03:00,
2013-05-30 10:12:00,47.0,39.0,-100.00,North,3,8.0,12.0,73,-99.99,,,0.01,187.929993,,2013-05-30 16:12:00,
2013-05-30 10:33:00,49.0,37.0,-100.00,NE,42,3.0,7.0,64,-99.99,,,0.01,200.479996,,2013-05-30 16:33:00,
2013-05-30 10:42:00,49.0,37.0,-100.00,NE,42,3.0,7.0,64,-99.99,,,0.01,200.479996,,2013-05-30 16:42:00,
2013-05-30 10:53:00,49.0,37.0,-100.00,NE,42,3.0,7.0,64,-99.99,,,0.01,200.479996,,2013-05-30 16:53:00,
2013-05-30 11:02:00,49.0,37.0,-100.00,NE,42,3.0,7.0,64,-99.99,,,0.01,200.479996,,2013-05-30 17:02:00,
2013-05-30 11:11:00,49.0,37.0,-100.00,NE,42,3.0,7.0,64,-99.99,,,0.01,200.479996,,2013-05-30 17:11:00,
2013-05-30 11:32:00,48.0,38.0,-100.00,ESE,120,3.0,9.0,67,-99.99,,,0.01,656.530029,,2013-05-30 17:32:00,
2013-05-30 11:42:00,48.0,38.0,-100.00,ESE,120,3.0,9.0,67,-99.99,,,0.01,656.530029,,2013-05-30 17:42:00,
2013-05-30 11:52:00,48.0,38.0,-100.00,ESE,120,3.0,9.0,67,-99.99,,,0.01,656.530029,,2013-05-30 17:52:00,
2013-05-30 12:02:00,48.0,38.0,-100.00,ESE,120,3.0,9.0,67,-99.99,,,0.01,656.530029,,2013-05-30 18:02:00,
2013-05-30 12:11:00,48.0,38.0,-100.00,ESE,120,3.0,9.0,67,-99.99,,,0.01,656.530029,,2013-05-30 18:11:00,
2013-05-30 12:32:00,50.0,35.0,-100.00,NW,318,10.0,19.0,55,-99.99,,,0.01,531.130005,,2013-05-30 18:32:00,
2013-05-30 12:42:00,50.0,35.0,-100.00,NW,318,10.0,19.0,55,-99.99,,,0.01,531.130005,,2013-05-30 18:42:00,
2013-05-30 12:52:00,50.0,35.0,-100.00,NW,318,10.0,19.0,55,-99.99,,,0.01,531.130005,,2013-05-30 18:52:00,
2013-05-30 13:01:00,50.0,35.0,-100.00,NW,318,10.0,19.0,55,-99.99,,,0.01,531.130005,,2013-05-30 19:01:00,
2013-05-30 13:11:00,50.0,35.0,-100.00,NW,318,10.0,19.0,55,-99.99,,,0.01,531.130005,,2013-05-30 19:11:00,
2013-05-30 13:32:00,50.0,37.0,-100.00,NNW,335,16.0,24.0,58,-99.99,,,0.01,412.459991,,2013-05-30 19:32:00,
2013-05-30 13:42:00,50.0,37.0,-100.00,NNW,335,16.0,24.0,58,-99.99,,,0.01,412.459991,,2013-05-30 19:42:00,
2013-05-30 13:52:00,50.0,37.0,-100.00,NNW,335,16.0,24.0,58,-99.99,,,0.01,412.459991,,2013-05-30 19:52:00,
2013-05-30 14:01:00,50.0,37.0,-100.00,NNW,335,16.0,24.0,58,-99.99,,,0.01,412.459991,,2013-05-30 20:01:00,
2013-05-30 14:11:00,50.0,37.0,-100.00,NNW,335,16.0,24.0,58,-99.99,,,0.01,412.459991,,2013-05-30 20:11:00,
2013-05-30 14:33:00,55.0,32.0,-100.00,NW,313,10.0,21.0,40,-99.99,,,0.01,891.409973,,2013-05-30 20:33:00,
2013-05-30 14:42:00,55.0,32.0,-100.00,NW,313,10.0,21.0,40,-99.99,,,0.01,891.409973,,2013-05-30 20:42:00,
2013-05-30 14:52:00,55.0,32.0,-100.00,NW,313,10.0,21.0,40,-99.99,,,0.01,891.409973,,2013-05-30 20:52:00,
2013-05-30 15:01:00,55.0,32.0,-100.00,NW,313,10.0,21.0,40,-99.99,,,0.01,891.409973,,2013-05-30 21:01:00,
2013-05-30 15:11:00,55.0,32.0,-100.00,NW,313,10.0,21.0,40,-99.99,,,0.01,891.409973,,2013-05-30 21:11:00,
2013-05-30 15:33:00,56.0,35.0,-100.00,North,355,14.0,20.0,44,-99.99,,,0.01,1005.299988,,2013-05-30 21:33:00,
2013-05-30 15:42:00,56.0,35.0,-100.00,North,355,14.0,20.0,44,-99.99,,,0.01,1005.299988,,2013-05-30 21:42:00,
2013-05-30 15:53:00,56.0,35.0,-100.00,North,355,14.0,20.0,44,-99.99,,,0.01,1005.299988,,2013-05-30 21:53:00,
2013-05-30 16:02:00,56.0,35.0,-100.00,North,355,14.0,20.0,44,-99.99,,,0.01,1005.299988,,2013-05-30 22:02:00,
2013-05-30 16:12:00,56.0,35.0,-100.00,North,355,14.0,20.0,44,-99.99,,,0.01,1005.299988,,2013-05-30 22:12:00,
2013-05-30 16:33:00,52.0,35.0,-100.00,NNW,344,16.0,24.0,50,-99.99,,,0.01,216.050003,,2013-05-30 22:33:00,
2013-05-30 16:42:00,52.0,35.0,-100.00,NNW,344,16.0,24.0,50,-99.99,,,0.01,216.050003,,2013-05-30 22:42:00,
2013-05-30 16:52:00,52.0,35.0,-100.00,NNW,344,16.0,24.0,50,-99.99,,,0.01,216.050003,,2013-05-30 22:52:00,
2013-05-30 17:02:00,52.0,35.0,-100.00,NNW,344,16.0,24.0,50,-99.99,,,0.01,216.050003,,2013-05-30 23:02:00,
2013-05-30 17:11:00,52.0,35.0,-100.00,NNW,344,16.0,24.0,50,-99.99,,,0.01,216.050003,,2013-05-30 23:11:00,
2013-05-30 17:31:00,54.0,35.0,-100.00,NNW,345,15.0,22.0,48,-99.99,,,0.01,369.350006,,2013-05-30 23:31:00,
2013-05-30 17:41:00,54.0,35.0,-100.00,NNW,345,15.0,22.0,48,-99.99,,,0.01,369.350006,,2013-05-30 23:41:00,
2013-05-30 17:52:00,54.0,35.0,-100.00,NNW,345,15.0,22.0,48,-99.99,,,0.01,369.350006,,2013-05-30 23:52:00,
2013-05-30 18:01:00,54.0,35.0,-100.00,NNW,345,15.0,22.0,48,-99.99,,,0.01,369.350006,,2013-05-31 00:01:00,
2013-05-30 18:11:00,54.0,35.0,-100.00,NNW,345,15.0,22.0,48,-99.99,,,0.01,369.350006,,2013-05-31 00:11:00,
2013-05-30 18:32:00,53.0,35.0,-100.00,North,358,16.0,22.0,50,-99.99,,,0.01,229.190002,,2013-05-31 00:32:00,
2013-05-30 18:42:00,53.0,35.0,-100.00,North,358,16.0,22.0,50,-99.99,,,0.01,229.190002,,2013-05-31 00:42:00,
2013-05-30 18:52:00,53.0,35.0,-100.00,North,358,16.0,22.0,50,-99.99,,,0.01,229.190002,,2013-05-31 00:52:00,
2013-05-30 19:01:00,53.0,35.0,-100.00,North,358,16.0,22.0,50,-99.99,,,0.01,229.190002,,2013-05-31 01:01:00,
2013-05-30 19:12:00,53.0,35.0,-100.00,North,358,16.0,22.0,50,-99.99,,,0.01,229.190002,,2013-05-31 01:12:00,
2013-05-30 19:32:00,52.0,33.0,-100.00,NNW,345,16.0,23.0,47,-99.99,,,0.01,177.929993,,2013-05-31 01:32:00,
2013-05-30 19:42:00,52.0,33.0,-100.00,NNW,345,16.0,23.0,47,-99.99,,,0.01,177.929993,,2013-05-31 01:42:00,
2013-05-30 19:52:00,52.0,33.0,-100.00,NNW,345,16.0,23.0,47,-99.99,,,0.01,177.929993,,2013-05-31 01:52:00,
2013-05-30 20:02:00,52.0,33.0,-100.00,NNW,345,16.0,23.0,47,-99.99,,,0.01,177.929993,,2013-05-31 02:02:00,
2013-05-30 20:11:00,52.0,33.0,-100.00,NNW,345,16.0,23.0,47,-99.99,,,0.01,177.929993,,2013-05-31 02:11:00,
2013-05-30 20:32:00,50.0,35.0,-100.00,NNW,346,16.0,22.0,55,-99.99,,,0.01,98.209999,,2013-05-31 02:32:00,
2013-05-30 20:41:00,50.0,35.0,-100.00,NNW,346,16.0,22.0,55,-99.99,,,0.01,98.209999,,2013-05-31 02:41:00,
2013-05-30 20:52:00,50.0,35.0,-100.00,NNW,346,16.0,22.0,55,-99.99,,,0.01,98.209999,,2013-05-31 02:52:00,
2013-05-30 21:01:00,50.0,35.0,-100.00,NNW,346,16.0,22.0,55,-99.99,,,0.01,98.209999,,2013-05-31 03:01:00,
2013-05-30 21:11:00,50.0,35.0,-100.00,NNW,346,16.0,22.0,55,-99.99,,,0.01,98.209999,,2013-05-31 03:11:00,
2013-05-30 21:33:00,47.0,35.0,-100.00,North,354,14.0,25.0,62,-99.99,,,0.01,5.810000,,2013-05-31 03:33:00,
2013-05-30 21:43:00,47.0,35.0,-100.00,North,354,14.0,25.0,62,-99.99,,,0.01,5.810000,,2013-05-31 03:43:00,
2013-05-30 21:53:00,47.0,35.0,-100.00,North,354,14.0,25.0,62,-99.99,,,0.01,5.810000,,2013-05-31 03:53:00,
2013-05-30 22:02:00,47.0,35.0,-100.00,North,354,14.0,25.0,62,-99.99,,,0.01,5.810000,,2013-05-31 04:02:00,
2013-05-30 22:12:00,47.0,35.0,-100.00,North,354,14.0,25.0,62,-99.99,,,0.01,5.810000,,2013-05-31 04:12:00,
2013-05-30 22:32:00,45.0,35.0,-100.00,North,7,9.0,14.0,68,-99.99,,,0.01,0.120000,,2013-05-31 04:32:00,
2013-05-30 22:42:00,45.0,35.0,-100.00,North,7,9.0,14.0,68,-99.99,,,0.01,0.120000,,2013-05-31 04:42:00,
2013-05-30 22:53:00,45.0,35.0,-100.00,North,7,9.0,14.0,68,-99.99,,,0.01,0.120000,,2013-05-31 04:53:00,
2013-05-30 23:02:00,45.0,35.0,-100.00,North,7,9.0,14.0,68,-99.99,,,0.01,0.120000,,2013-05-31 05:02:00,
2013-05-30 23:12:00,45.0,35.0,-100.00,North,7,9.0,14.0,68,-99.99,,,0.01,0.120000,,2013-05-31 05:12:00,
2013-05-30 23:31:00,43.0,36.0,-100.00,NNE,24,8.0,11.0,75,-99.99,,,0.00,0.120000,,2013-05-31 05:31:00,
2013-05-30 23:42:00,43.0,36.0,-100.00,NNE,24,8.0,11.0,75,-99.99,,,0.00,0.120000,,2013-05-31 05:42:00,
2013-05-30 23:52:00,43.0,36.0,-100.00,NNE,24,8.0,11.0,75,-99.99,,,0.00,0.120000,,2013-05-31 05:52:00,